Decoded Metar for UTAA (ASHKHABAD in RUSSIA) (IATA:ASB) | Meteo·Mobile Aviation Weather
aviador You're here:

UTAA Decoded Metar

ASHKHABAD in RUSSIA
Report Time2019-01-19 06:00:00
UTC Time2019-01-19 06:22:56
Flight Rules vfr VFR
Wind140° at 04 kt
W.Decomp.*RWY 12: 3.8 kt HW 1.1 kt RCW
RWY 11: 3.6 kt HW 1.8 kt RCW
W.Rank140° ranks 22
Current wind is below 140° avg. (5.4)
Visibility9999 m
Phenomena:N/A
Clouds:Scattered 033 Hf
Broken 100 Hf
Expected CloudBase > 1,600 ft AGL from Temp-Dew spread
Ceiling10,000 ft
Temp04°C (ISA -10)
Dew Point00°C (75% RH)
AAT0.6°C
QNH1017 hPa
Density Alt-525 ft
Elevation689 ft
Report Wrong Elevation
Raw Report
METAR UTAA 190600Z 14004KT 110V170 9999 SCT033 BKN100 04/00 Q1017 R88/70D
NOSIG=

Extra information for UTAA:More info

Metar Taf Metar & Taf Last 4 Metars F.Rules Stats Wind Profile Meteogram Temp Stats Airport Information Weather charts Add Link Nearby VenuesMetar ALERT Operation Metar Decoded Social comments